sensor_id;sensor_type;location;lat;lon;timestamp;P1;durP1;ratioP1;P2;durP2;ratioP2
3453;SDS011;1741;51.294;8.608;2024-02-04T00:02:18;7.90;;;5.50;;
3453;SDS011;1741;51.294;8.608;2024-02-04T00:04:51;7.30;;;6.43;;
3453;SDS011;1741;51.294;8.608;2024-02-04T00:07:21;9.40;;;7.50;;
3453;SDS011;1741;51.294;8.608;2024-02-04T00:09:49;6.90;;;5.83;;
3453;SDS011;1741;51.294;8.608;2024-02-04T00:12:16;6.00;;;5.50;;
3453;SDS011;1741;51.294;8.608;2024-02-04T00:14:45;8.03;;;6.80;;
3453;SDS011;1741;51.294;8.608;2024-02-04T00:17:15;6.93;;;6.03;;
3453;SDS011;1741;51.294;8.608;2024-02-04T00:19:45;8.17;;;6.60;;
3453;SDS011;1741;51.294;8.608;2024-02-04T00:22:12;10.40;;;6.30;;
3453;SDS011;1741;51.294;8.608;2024-02-04T00:24:39;5.77;;;5.17;;
3453;SDS011;1741;51.294;8.608;2024-02-04T00:27:07;6.87;;;6.17;;
3453;SDS011;1741;51.294;8.608;2024-02-04T00:29:35;6.53;;;5.93;;
3453;SDS011;1741;51.294;8.608;2024-02-04T00:32:02;5.47;;;5.00;;
3453;SDS011;1741;51.294;8.608;2024-02-04T00:34:29;7.60;;;5.77;;
3453;SDS011;1741;51.294;8.608;2024-02-04T00:36:57;5.50;;;4.77;;
3453;SDS011;1741;51.294;8.608;2024-02-04T00:39:24;6.70;;;5.20;;
3453;SDS011;1741;51.294;8.608;2024-02-04T00:41:51;6.53;;;5.87;;
3453;SDS011;1741;51.294;8.608;2024-02-04T00:44:18;6.57;;;5.97;;
3453;SDS011;1741;51.294;8.608;2024-02-04T00:46:47;8.30;;;5.67;;
3453;SDS011;1741;51.294;8.608;2024-02-04T00:49:13;7.83;;;6.47;;
3453;SDS011;1741;51.294;8.608;2024-02-04T00:51:41;7.23;;;6.47;;
3453;SDS011;1741;51.294;8.608;2024-02-04T00:54:09;7.07;;;6.00;;
3453;SDS011;1741;51.294;8.608;2024-02-04T00:56:36;7.00;;;5.30;;
3453;SDS011;1741;51.294;8.608;2024-02-04T00:59:04;5.90;;;5.03;;
3453;SDS011;1741;51.294;8.608;2024-02-04T01:01:32;7.80;;;5.63;;
3453;SDS011;1741;51.294;8.608;2024-02-04T01:03:59;6.43;;;5.70;;
3453;SDS011;1741;51.294;8.608;2024-02-04T01:06:26;6.00;;;5.40;;
3453;SDS011;1741;51.294;8.608;2024-02-04T01:08:58;7.73;;;6.47;;
3453;SDS011;1741;51.294;8.608;2024-02-04T01:11:25;6.70;;;6.00;;
3453;SDS011;1741;51.294;8.608;2024-02-04T01:13:51;6.03;;;5.43;;
3453;SDS011;1741;51.294;8.608;2024-02-04T01:16:18;6.33;;;5.80;;
3453;SDS011;1741;51.294;8.608;2024-02-04T01:18:45;6.30;;;5.60;;
3453;SDS011;1741;51.294;8.608;2024-02-04T01:21:13;14.30;;;6.37;;
3453;SDS011;1741;51.294;8.608;2024-02-04T01:23:40;7.60;;;5.90;;
3453;SDS011;1741;51.294;8.608;2024-02-04T01:26:07;6.70;;;6.10;;
3453;SDS011;1741;51.294;8.608;2024-02-04T01:28:34;8.13;;;6.10;;
3453;SDS011;1741;51.294;8.608;2024-02-04T01:31:02;6.03;;;5.47;;
3453;SDS011;1741;51.294;8.608;2024-02-04T01:33:31;6.80;;;5.73;;
3453;SDS011;1741;51.294;8.608;2024-02-04T01:35:58;6.40;;;5.80;;
3453;SDS011;1741;51.294;8.608;2024-02-04T01:38:25;5.13;;;4.53;;
3453;SDS011;1741;51.294;8.608;2024-02-04T01:40:52;4.27;;;3.87;;
3453;SDS011;1741;51.294;8.608;2024-02-04T01:43:21;4.37;;;4.00;;
3453;SDS011;1741;51.294;8.608;2024-02-04T01:45:49;4.63;;;4.23;;
3453;SDS011;1741;51.294;8.608;2024-02-04T01:48:21;4.60;;;4.20;;
3453;SDS011;1741;51.294;8.608;2024-02-04T01:50:50;4.43;;;4.00;;
3453;SDS011;1741;51.294;8.608;2024-02-04T01:53:19;5.97;;;4.03;;
3453;SDS011;1741;51.294;8.608;2024-02-04T01:55:49;4.03;;;3.53;;
3453;SDS011;1741;51.294;8.608;2024-02-04T01:58:17;4.37;;;3.97;;
3453;SDS011;1741;51.294;8.608;2024-02-04T02:00:45;5.10;;;4.53;;
3453;SDS011;1741;51.294;8.608;2024-02-04T02:03:12;4.30;;;3.90;;
3453;SDS011;1741;51.294;8.608;2024-02-04T02:05:40;7.60;;;5.00;;
3453;SDS011;1741;51.294;8.608;2024-02-04T02:08:08;4.83;;;4.17;;
3453;SDS011;1741;51.294;8.608;2024-02-04T02:10:36;4.10;;;3.67;;
3453;SDS011;1741;51.294;8.608;2024-02-04T02:13:11;4.67;;;4.10;;
3453;SDS011;1741;51.294;8.608;2024-02-04T02:15:48;5.57;;;3.77;;
3453;SDS011;1741;51.294;8.608;2024-02-04T02:18:20;4.93;;;4.53;;
3453;SDS011;1741;51.294;8.608;2024-02-04T02:26:50;3.00;;;2.80;;
3453;SDS011;1741;51.294;8.608;2024-02-04T02:29:17;2.93;;;2.73;;
3453;SDS011;1741;51.294;8.608;2024-02-04T02:31:44;2.57;;;2.47;;
3453;SDS011;1741;51.294;8.608;2024-02-04T02:34:14;2.33;;;2.23;;
3453;SDS011;1741;51.294;8.608;2024-02-04T02:37:03;2.23;;;2.03;;
3453;SDS011;1741;51.294;8.608;2024-02-04T02:42:39;1.57;;;1.47;;
3453;SDS011;1741;51.294;8.608;2024-02-04T02:45:09;1.50;;;1.40;;
3453;SDS011;1741;51.294;8.608;2024-02-04T02:47:39;1.00;;;1.00;;
3453;SDS011;1741;51.294;8.608;2024-02-04T02:50:09;1.17;;;1.17;;
3453;SDS011;1741;51.294;8.608;2024-02-04T02:52:37;1.07;;;1.07;;
3453;SDS011;1741;51.294;8.608;2024-02-04T02:55:04;1.03;;;1.03;;
3453;SDS011;1741;51.294;8.608;2024-02-04T02:57:33;1.47;;;1.47;;
3453;SDS011;1741;51.294;8.608;2024-02-04T03:00:01;1.07;;;1.07;;
3453;SDS011;1741;51.294;8.608;2024-02-04T03:02:29;1.40;;;1.40;;
3453;SDS011;1741;51.294;8.608;2024-02-04T03:04:58;1.10;;;1.10;;
3453;SDS011;1741;51.294;8.608;2024-02-04T03:07:25;1.30;;;1.20;;
3453;SDS011;1741;51.294;8.608;2024-02-04T03:09:53;2.13;;;0.70;;
3453;SDS011;1741;51.294;8.608;2024-02-04T03:12:21;1.07;;;1.07;;
3453;SDS011;1741;51.294;8.608;2024-02-04T03:14:48;0.70;;;0.70;;
3453;SDS011;1741;51.294;8.608;2024-02-04T03:17:15;0.70;;;0.70;;
3453;SDS011;1741;51.294;8.608;2024-02-04T03:19:48;0.70;;;0.70;;
3453;SDS011;1741;51.294;8.608;2024-02-04T03:22:16;0.70;;;0.70;;
3453;SDS011;1741;51.294;8.608;2024-02-04T03:24:43;0.53;;;0.53;;
3453;SDS011;1741;51.294;8.608;2024-02-04T03:27:12;0.50;;;0.50;;
3453;SDS011;1741;51.294;8.608;2024-02-04T03:29:39;0.50;;;0.50;;
3453;SDS011;1741;51.294;8.608;2024-02-04T03:32:06;0.50;;;0.50;;
3453;SDS011;1741;51.294;8.608;2024-02-04T03:34:33;0.60;;;0.60;;
3453;SDS011;1741;51.294;8.608;2024-02-04T03:37:02;0.50;;;0.50;;
3453;SDS011;1741;51.294;8.608;2024-02-04T03:39:30;0.57;;;0.57;;
3453;SDS011;1741;51.294;8.608;2024-02-04T03:41:58;0.60;;;0.60;;
3453;SDS011;1741;51.294;8.608;2024-02-04T03:44:25;0.50;;;0.50;;
3453;SDS011;1741;51.294;8.608;2024-02-04T03:46:52;0.60;;;0.60;;
3453;SDS011;1741;51.294;8.608;2024-02-04T03:49:20;0.60;;;0.60;;
3453;SDS011;1741;51.294;8.608;2024-02-04T03:51:48;0.60;;;0.60;;
3453;SDS011;1741;51.294;8.608;2024-02-04T03:54:15;0.60;;;0.60;;
3453;SDS011;1741;51.294;8.608;2024-02-04T03:56:42;0.50;;;0.50;;
3453;SDS011;1741;51.294;8.608;2024-02-04T03:59:09;1.90;;;0.60;;
3453;SDS011;1741;51.294;8.608;2024-02-04T04:01:37;0.77;;;0.77;;
3453;SDS011;1741;51.294;8.608;2024-02-04T04:04:04;0.60;;;0.60;;
3453;SDS011;1741;51.294;8.608;2024-02-04T04:06:32;0.90;;;0.73;;
3453;SDS011;1741;51.294;8.608;2024-02-04T04:08:59;0.73;;;0.73;;
3453;SDS011;1741;51.294;8.608;2024-02-04T04:11:27;1.40;;;1.40;;
3453;SDS011;1741;51.294;8.608;2024-02-04T04:13:55;1.47;;;1.40;;
3453;SDS011;1741;51.294;8.608;2024-02-04T04:16:24;1.73;;;1.63;;
3453;SDS011;1741;51.294;8.608;2024-02-04T04:18:51;3.63;;;3.33;;
3453;SDS011;1741;51.294;8.608;2024-02-04T04:21:19;4.23;;;3.83;;
3453;SDS011;1741;51.294;8.608;2024-02-04T04:23:46;5.73;;;4.10;;
3453;SDS011;1741;51.294;8.608;2024-02-04T04:26:14;6.00;;;4.53;;
3453;SDS011;1741;51.294;8.608;2024-02-04T04:28:43;6.00;;;5.40;;
3453;SDS011;1741;51.294;8.608;2024-02-04T04:31:10;7.57;;;5.40;;
3453;SDS011;1741;51.294;8.608;2024-02-04T04:33:37;6.30;;;5.70;;
3453;SDS011;1741;51.294;8.608;2024-02-04T04:36:05;5.70;;;5.17;;
3453;SDS011;1741;51.294;8.608;2024-02-04T04:38:32;6.73;;;5.40;;
3453;SDS011;1741;51.294;8.608;2024-02-04T04:40:59;6.03;;;5.43;;
3453;SDS011;1741;51.294;8.608;2024-02-04T04:43:26;5.23;;;4.73;;
3453;SDS011;1741;51.294;8.608;2024-02-04T04:45:54;5.80;;;5.27;;
3453;SDS011;1741;51.294;8.608;2024-02-04T04:48:22;6.80;;;5.27;;
3453;SDS011;1741;51.294;8.608;2024-02-04T04:50:49;5.97;;;5.37;;
3453;SDS011;1741;51.294;8.608;2024-02-04T04:53:16;7.13;;;5.80;;
3453;SDS011;1741;51.294;8.608;2024-02-04T04:55:43;8.10;;;6.80;;
3453;SDS011;1741;51.294;8.608;2024-02-04T04:58:10;8.37;;;6.40;;
3453;SDS011;1741;51.294;8.608;2024-02-04T05:00:38;11.10;;;7.23;;
3453;SDS011;1741;51.294;8.608;2024-02-04T05:03:05;8.73;;;7.20;;
3453;SDS011;1741;51.294;8.608;2024-02-04T05:05:33;8.83;;;7.40;;
3453;SDS011;1741;51.294;8.608;2024-02-04T05:08:01;8.10;;;7.17;;
3453;SDS011;1741;51.294;8.608;2024-02-04T05:10:28;9.70;;;7.60;;
3453;SDS011;1741;51.294;8.608;2024-02-04T05:12:56;10.97;;;8.10;;
3453;SDS011;1741;51.294;8.608;2024-02-04T05:15:23;10.10;;;8.20;;
3453;SDS011;1741;51.294;8.608;2024-02-04T05:17:52;12.30;;;8.70;;
3453;SDS011;1741;51.294;8.608;2024-02-04T05:20:19;10.10;;;8.27;;
3453;SDS011;1741;51.294;8.608;2024-02-04T05:22:46;13.97;;;10.40;;
3453;SDS011;1741;51.294;8.608;2024-02-04T05:25:14;13.63;;;8.30;;
3453;SDS011;1741;51.294;8.608;2024-02-04T05:27:41;10.87;;;8.17;;
3453;SDS011;1741;51.294;8.608;2024-02-04T05:30:10;13.03;;;7.97;;
3453;SDS011;1741;51.294;8.608;2024-02-04T05:32:37;9.87;;;7.13;;
3453;SDS011;1741;51.294;8.608;2024-02-04T05:35:07;10.30;;;8.43;;
3453;SDS011;1741;51.294;8.608;2024-02-04T05:37:35;10.10;;;7.77;;
3453;SDS011;1741;51.294;8.608;2024-02-04T05:40:03;8.83;;;6.63;;
3453;SDS011;1741;51.294;8.608;2024-02-04T05:42:31;10.10;;;8.17;;
3453;SDS011;1741;51.294;8.608;2024-02-04T05:44:58;13.23;;;8.37;;
3453;SDS011;1741;51.294;8.608;2024-02-04T05:47:25;10.03;;;7.67;;
3453;SDS011;1741;51.294;8.608;2024-02-04T05:49:55;9.40;;;7.40;;
3453;SDS011;1741;51.294;8.608;2024-02-04T05:52:22;9.80;;;8.80;;
3453;SDS011;1741;51.294;8.608;2024-02-04T05:54:50;12.50;;;9.70;;
3453;SDS011;1741;51.294;8.608;2024-02-04T05:57:17;8.47;;;7.30;;
3453;SDS011;1741;51.294;8.608;2024-02-04T05:59:46;8.80;;;7.07;;
3453;SDS011;1741;51.294;8.608;2024-02-04T06:02:15;7.43;;;6.33;;
3453;SDS011;1741;51.294;8.608;2024-02-04T06:04:43;6.93;;;6.10;;
3453;SDS011;1741;51.294;8.608;2024-02-04T06:07:10;7.60;;;6.60;;
3453;SDS011;1741;51.294;8.608;2024-02-04T06:09:37;6.23;;;5.60;;
3453;SDS011;1741;51.294;8.608;2024-02-04T06:12:04;4.50;;;4.10;;
3453;SDS011;1741;51.294;8.608;2024-02-04T06:14:33;4.43;;;3.97;;
3453;SDS011;1741;51.294;8.608;2024-02-04T06:17:01;3.50;;;3.20;;
3453;SDS011;1741;51.294;8.608;2024-02-04T06:19:29;3.93;;;3.63;;
3453;SDS011;1741;51.294;8.608;2024-02-04T06:21:56;4.80;;;4.40;;
3453;SDS011;1741;51.294;8.608;2024-02-04T06:24:23;4.70;;;4.30;;
3453;SDS011;1741;51.294;8.608;2024-02-04T06:26:51;4.87;;;4.47;;
3453;SDS011;1741;51.294;8.608;2024-02-04T06:29:20;5.30;;;4.50;;
3453;SDS011;1741;51.294;8.608;2024-02-04T06:31:47;6.93;;;5.80;;
3453;SDS011;1741;51.294;8.608;2024-02-04T06:34:14;6.37;;;5.47;;
3453;SDS011;1741;51.294;8.608;2024-02-04T06:36:45;8.57;;;5.77;;
3453;SDS011;1741;51.294;8.608;2024-02-04T06:39:13;7.90;;;6.23;;
3453;SDS011;1741;51.294;8.608;2024-02-04T06:41:41;9.73;;;6.47;;
3453;SDS011;1741;51.294;8.608;2024-02-04T06:44:08;6.87;;;6.17;;
3453;SDS011;1741;51.294;8.608;2024-02-04T06:46:35;6.97;;;6.27;;
3453;SDS011;1741;51.294;8.608;2024-02-04T06:49:03;7.17;;;6.40;;
3453;SDS011;1741;51.294;8.608;2024-02-04T06:51:30;13.93;;;7.40;;
3453;SDS011;1741;51.294;8.608;2024-02-04T06:53:58;9.40;;;8.00;;
3453;SDS011;1741;51.294;8.608;2024-02-04T06:56:29;11.53;;;6.97;;
3453;SDS011;1741;51.294;8.608;2024-02-04T06:58:57;12.30;;;7.83;;
3453;SDS011;1741;51.294;8.608;2024-02-04T07:01:25;9.20;;;7.73;;
3453;SDS011;1741;51.294;8.608;2024-02-04T07:03:53;8.70;;;7.07;;
3453;SDS011;1741;51.294;8.608;2024-02-04T07:06:21;10.43;;;8.00;;
3453;SDS011;1741;51.294;8.608;2024-02-04T07:08:50;10.43;;;7.93;;
3453;SDS011;1741;51.294;8.608;2024-02-04T07:11:17;10.60;;;8.10;;
3453;SDS011;1741;51.294;8.608;2024-02-04T07:13:45;13.60;;;6.13;;
3453;SDS011;1741;51.294;8.608;2024-02-04T07:16:13;12.67;;;8.33;;
3453;SDS011;1741;51.294;8.608;2024-02-04T07:18:41;11.30;;;8.50;;
3453;SDS011;1741;51.294;8.608;2024-02-04T07:21:08;10.27;;;7.17;;
3453;SDS011;1741;51.294;8.608;2024-02-04T07:23:36;12.73;;;8.90;;
3453;SDS011;1741;51.294;8.608;2024-02-04T07:26:03;9.90;;;8.83;;
3453;SDS011;1741;51.294;8.608;2024-02-04T07:28:32;9.03;;;8.10;;
3453;SDS011;1741;51.294;8.608;2024-02-04T07:31:00;11.33;;;8.03;;
3453;SDS011;1741;51.294;8.608;2024-02-04T07:33:27;9.13;;;7.73;;
3453;SDS011;1741;51.294;8.608;2024-02-04T07:35:58;10.10;;;7.70;;
3453;SDS011;1741;51.294;8.608;2024-02-04T07:38:26;10.43;;;7.60;;
3453;SDS011;1741;51.294;8.608;2024-02-04T07:40:53;15.00;;;8.47;;
3453;SDS011;1741;51.294;8.608;2024-02-04T07:43:22;8.83;;;7.67;;
3453;SDS011;1741;51.294;8.608;2024-02-04T07:45:49;10.40;;;7.93;;
3453;SDS011;1741;51.294;8.608;2024-02-04T07:48:16;9.93;;;7.70;;
3453;SDS011;1741;51.294;8.608;2024-02-04T07:50:45;10.50;;;8.10;;
3453;SDS011;1741;51.294;8.608;2024-02-04T07:53:13;9.87;;;7.73;;
3453;SDS011;1741;51.294;8.608;2024-02-04T07:55:40;8.97;;;7.53;;
3453;SDS011;1741;51.294;8.608;2024-02-04T07:58:08;10.03;;;7.83;;
3453;SDS011;1741;51.294;8.608;2024-02-04T08:00:35;10.53;;;7.60;;
3453;SDS011;1741;51.294;8.608;2024-02-04T08:03:02;7.33;;;6.57;;
3453;SDS011;1741;51.294;8.608;2024-02-04T08:05:30;8.23;;;6.37;;
3453;SDS011;1741;51.294;8.608;2024-02-04T08:07:59;6.50;;;5.77;;
3453;SDS011;1741;51.294;8.608;2024-02-04T08:10:27;5.60;;;4.97;;
3453;SDS011;1741;51.294;8.608;2024-02-04T08:12:54;4.90;;;4.47;;
3453;SDS011;1741;51.294;8.608;2024-02-04T08:15:22;4.57;;;4.13;;
3453;SDS011;1741;51.294;8.608;2024-02-04T08:17:50;3.90;;;3.50;;
3453;SDS011;1741;51.294;8.608;2024-02-04T08:20:17;3.30;;;3.10;;
3453;SDS011;1741;51.294;8.608;2024-02-04T08:22:46;3.40;;;3.10;;
3453;SDS011;1741;51.294;8.608;2024-02-04T08:25:15;4.77;;;3.20;;
3453;SDS011;1741;51.294;8.608;2024-02-04T08:27:42;2.87;;;2.50;;
3453;SDS011;1741;51.294;8.608;2024-02-04T08:30:11;3.60;;;3.27;;
3453;SDS011;1741;51.294;8.608;2024-02-04T08:32:39;3.30;;;3.10;;
3453;SDS011;1741;51.294;8.608;2024-02-04T08:35:08;4.17;;;3.83;;
3453;SDS011;1741;51.294;8.608;2024-02-04T08:37:35;3.93;;;3.57;;
3453;SDS011;1741;51.294;8.608;2024-02-04T08:40:09;4.67;;;4.17;;
3453;SDS011;1741;51.294;8.608;2024-02-04T08:42:37;4.00;;;3.60;;
3453;SDS011;1741;51.294;8.608;2024-02-04T08:45:05;5.20;;;4.40;;
3453;SDS011;1741;51.294;8.608;2024-02-04T08:47:32;7.70;;;4.13;;
3453;SDS011;1741;51.294;8.608;2024-02-04T08:50:01;4.00;;;3.70;;
3453;SDS011;1741;51.294;8.608;2024-02-04T08:52:29;3.77;;;3.53;;
3453;SDS011;1741;51.294;8.608;2024-02-04T08:54:57;3.63;;;3.33;;
3453;SDS011;1741;51.294;8.608;2024-02-04T08:57:26;3.30;;;3.10;;
3453;SDS011;1741;51.294;8.608;2024-02-04T08:59:53;3.37;;;3.13;;
3453;SDS011;1741;51.294;8.608;2024-02-04T09:02:20;3.10;;;2.90;;
3453;SDS011;1741;51.294;8.608;2024-02-04T09:04:47;2.33;;;2.20;;
3453;SDS011;1741;51.294;8.608;2024-02-04T09:07:15;3.63;;;2.90;;
3453;SDS011;1741;51.294;8.608;2024-02-04T09:09:44;3.57;;;3.00;;
3453;SDS011;1741;51.294;8.608;2024-02-04T09:12:11;4.60;;;2.23;;
3453;SDS011;1741;51.294;8.608;2024-02-04T09:14:39;2.40;;;2.10;;
3453;SDS011;1741;51.294;8.608;2024-02-04T09:17:06;2.50;;;1.90;;
3453;SDS011;1741;51.294;8.608;2024-02-04T09:19:33;2.00;;;1.90;;
3453;SDS011;1741;51.294;8.608;2024-02-04T09:22:08;2.33;;;1.90;;
3453;SDS011;1741;51.294;8.608;2024-02-04T09:24:36;2.10;;;2.00;;
3453;SDS011;1741;51.294;8.608;2024-02-04T09:27:04;1.87;;;1.80;;
3453;SDS011;1741;51.294;8.608;2024-02-04T09:29:31;1.30;;;1.30;;
3453;SDS011;1741;51.294;8.608;2024-02-04T09:31:59;1.90;;;1.80;;
3453;SDS011;1741;51.294;8.608;2024-02-04T09:34:27;2.87;;;1.90;;
3453;SDS011;1741;51.294;8.608;2024-02-04T09:36:54;1.20;;;1.20;;
3453;SDS011;1741;51.294;8.608;2024-02-04T09:39:21;1.50;;;1.40;;
3453;SDS011;1741;51.294;8.608;2024-02-04T09:41:49;1.60;;;1.60;;
3453;SDS011;1741;51.294;8.608;2024-02-04T09:44:16;1.73;;;1.73;;
3453;SDS011;1741;51.294;8.608;2024-02-04T09:46:45;1.47;;;1.47;;
3453;SDS011;1741;51.294;8.608;2024-02-04T09:49:12;3.40;;;1.87;;
3453;SDS011;1741;51.294;8.608;2024-02-04T09:51:40;1.60;;;1.60;;
3453;SDS011;1741;51.294;8.608;2024-02-04T09:54:09;1.73;;;1.63;;
3453;SDS011;1741;51.294;8.608;2024-02-04T09:56:37;1.87;;;1.77;;
3453;SDS011;1741;51.294;8.608;2024-02-04T09:59:06;1.77;;;1.67;;
3453;SDS011;1741;51.294;8.608;2024-02-04T10:01:34;1.97;;;1.87;;
3453;SDS011;1741;51.294;8.608;2024-02-04T10:04:02;1.90;;;1.80;;
3453;SDS011;1741;51.294;8.608;2024-02-04T10:06:31;1.83;;;1.73;;
3453;SDS011;1741;51.294;8.608;2024-02-04T10:09:00;2.87;;;2.67;;
3453;SDS011;1741;51.294;8.608;2024-02-04T10:11:27;1.63;;;1.53;;
3453;SDS011;1741;51.294;8.608;2024-02-04T10:13:54;1.63;;;1.63;;
3453;SDS011;1741;51.294;8.608;2024-02-04T10:16:24;1.30;;;1.30;;
3453;SDS011;1741;51.294;8.608;2024-02-04T10:18:51;3.03;;;1.27;;
3453;SDS011;1741;51.294;8.608;2024-02-04T10:21:21;2.23;;;1.60;;
3453;SDS011;1741;51.294;8.608;2024-02-04T10:23:50;1.50;;;1.40;;
3453;SDS011;1741;51.294;8.608;2024-02-04T10:26:17;1.40;;;1.40;;
3453;SDS011;1741;51.294;8.608;2024-02-04T10:28:47;1.40;;;1.40;;
3453;SDS011;1741;51.294;8.608;2024-02-04T10:31:15;1.30;;;1.30;;
3453;SDS011;1741;51.294;8.608;2024-02-04T10:33:46;1.10;;;1.10;;
3453;SDS011;1741;51.294;8.608;2024-02-04T10:36:13;1.00;;;1.00;;
3453;SDS011;1741;51.294;8.608;2024-02-04T10:38:42;1.10;;;1.10;;
3453;SDS011;1741;51.294;8.608;2024-02-04T10:41:10;1.10;;;1.10;;
3453;SDS011;1741;51.294;8.608;2024-02-04T10:43:42;0.70;;;0.70;;
3453;SDS011;1741;51.294;8.608;2024-02-04T10:46:12;0.90;;;0.90;;
3453;SDS011;1741;51.294;8.608;2024-02-04T10:48:44;1.07;;;1.07;;
3453;SDS011;1741;51.294;8.608;2024-02-04T10:51:18;1.00;;;1.00;;
3453;SDS011;1741;51.294;8.608;2024-02-04T10:53:51;1.23;;;1.23;;
3453;SDS011;1741;51.294;8.608;2024-02-04T10:56:22;1.73;;;1.63;;
3453;SDS011;1741;51.294;8.608;2024-02-04T10:58:55;1.83;;;1.73;;
3453;SDS011;1741;51.294;8.608;2024-02-04T11:01:24;1.80;;;1.70;;
3453;SDS011;1741;51.294;8.608;2024-02-04T11:03:53;2.40;;;2.30;;
3453;SDS011;1741;51.294;8.608;2024-02-04T11:06:22;6.30;;;3.53;;
3453;SDS011;1741;51.294;8.608;2024-02-04T11:08:50;5.80;;;3.53;;
3453;SDS011;1741;51.294;8.608;2024-02-04T11:11:21;4.27;;;3.80;;
3453;SDS011;1741;51.294;8.608;2024-02-04T11:13:51;3.83;;;3.63;;
3453;SDS011;1741;51.294;8.608;2024-02-04T11:16:31;4.00;;;3.73;;
3453;SDS011;1741;51.294;8.608;2024-02-04T11:22:04;3.70;;;3.43;;
3453;SDS011;1741;51.294;8.608;2024-02-04T11:27:41;3.07;;;2.87;;
3453;SDS011;1741;51.294;8.608;2024-02-04T11:30:09;4.00;;;3.20;;
3453;SDS011;1741;51.294;8.608;2024-02-04T11:32:36;3.30;;;3.10;;
3453;SDS011;1741;51.294;8.608;2024-02-04T11:35:04;4.13;;;3.77;;
3453;SDS011;1741;51.294;8.608;2024-02-04T11:37:34;4.13;;;3.80;;
3453;SDS011;1741;51.294;8.608;2024-02-04T11:40:03;4.23;;;3.83;;
3453;SDS011;1741;51.294;8.608;2024-02-04T11:42:31;3.83;;;3.53;;
3453;SDS011;1741;51.294;8.608;2024-02-04T11:45:06;3.27;;;2.73;;
3453;SDS011;1741;51.294;8.608;2024-02-04T11:47:39;2.73;;;2.63;;
3453;SDS011;1741;51.294;8.608;2024-02-04T11:50:08;3.30;;;3.10;;
3453;SDS011;1741;51.294;8.608;2024-02-04T11:52:37;2.97;;;2.73;;
3453;SDS011;1741;51.294;8.608;2024-02-04T11:55:12;1.90;;;1.80;;
3453;SDS011;1741;51.294;8.608;2024-02-04T11:57:40;4.80;;;3.20;;
3453;SDS011;1741;51.294;8.608;2024-02-04T12:00:08;3.43;;;3.13;;
3453;SDS011;1741;51.294;8.608;2024-02-04T12:02:39;2.33;;;2.23;;
3453;SDS011;1741;51.294;8.608;2024-02-04T12:05:06;3.03;;;2.83;;
3453;SDS011;1741;51.294;8.608;2024-02-04T12:07:35;2.80;;;2.60;;
3453;SDS011;1741;51.294;8.608;2024-02-04T12:10:09;3.00;;;2.80;;
3453;SDS011;1741;51.294;8.608;2024-02-04T12:12:38;3.27;;;2.90;;
3453;SDS011;1741;51.294;8.608;2024-02-04T12:15:06;5.43;;;3.30;;
3453;SDS011;1741;51.294;8.608;2024-02-04T12:17:34;4.40;;;4.10;;
3453;SDS011;1741;51.294;8.608;2024-02-04T12:20:01;4.77;;;4.47;;
3453;SDS011;1741;51.294;8.608;2024-02-04T12:22:32;5.03;;;4.63;;
3453;SDS011;1741;51.294;8.608;2024-02-04T12:25:00;4.60;;;4.30;;
3453;SDS011;1741;51.294;8.608;2024-02-04T12:27:30;4.67;;;4.37;;
3453;SDS011;1741;51.294;8.608;2024-02-04T12:29:58;6.10;;;5.50;;
3453;SDS011;1741;51.294;8.608;2024-02-04T12:32:26;4.70;;;4.30;;
3453;SDS011;1741;51.294;8.608;2024-02-04T12:34:53;4.77;;;4.37;;
3453;SDS011;1741;51.294;8.608;2024-02-04T12:37:21;4.90;;;4.17;;
3453;SDS011;1741;51.294;8.608;2024-02-04T12:39:48;4.27;;;4.07;;
3453;SDS011;1741;51.294;8.608;2024-02-04T12:42:16;6.80;;;5.33;;
3453;SDS011;1741;51.294;8.608;2024-02-04T12:44:48;4.73;;;4.43;;
3453;SDS011;1741;51.294;8.608;2024-02-04T12:47:18;4.97;;;4.57;;
3453;SDS011;1741;51.294;8.608;2024-02-04T12:49:46;4.23;;;3.93;;
3453;SDS011;1741;51.294;8.608;2024-02-04T12:52:14;4.20;;;3.80;;
3453;SDS011;1741;51.294;8.608;2024-02-04T12:54:41;3.60;;;3.13;;
3453;SDS011;1741;51.294;8.608;2024-02-04T12:57:09;3.60;;;3.40;;
3453;SDS011;1741;51.294;8.608;2024-02-04T12:59:47;5.00;;;4.07;;
3453;SDS011;1741;51.294;8.608;2024-02-04T13:02:14;2.77;;;2.57;;
3453;SDS011;1741;51.294;8.608;2024-02-04T13:04:44;2.80;;;2.70;;
3453;SDS011;1741;51.294;8.608;2024-02-04T13:07:14;3.37;;;2.23;;
3453;SDS011;1741;51.294;8.608;2024-02-04T13:09:43;2.43;;;2.33;;
3453;SDS011;1741;51.294;8.608;2024-02-04T13:12:16;1.67;;;1.57;;
3453;SDS011;1741;51.294;8.608;2024-02-04T13:14:44;1.27;;;1.27;;
3453;SDS011;1741;51.294;8.608;2024-02-04T13:17:11;1.00;;;1.00;;
3453;SDS011;1741;51.294;8.608;2024-02-04T13:19:39;8.53;;;7.47;;
3453;SDS011;1741;51.294;8.608;2024-02-04T13:22:07;8.50;;;6.10;;
3453;SDS011;1741;51.294;8.608;2024-02-04T13:24:37;1.03;;;1.03;;
3453;SDS011;1741;51.294;8.608;2024-02-04T13:27:06;1.33;;;1.23;;
3453;SDS011;1741;51.294;8.608;2024-02-04T13:29:35;0.70;;;0.70;;
3453;SDS011;1741;51.294;8.608;2024-02-04T13:32:03;0.77;;;0.77;;
3453;SDS011;1741;51.294;8.608;2024-02-04T13:34:32;0.60;;;0.60;;
3453;SDS011;1741;51.294;8.608;2024-02-04T13:37:00;5.10;;;4.60;;
3453;SDS011;1741;51.294;8.608;2024-02-04T13:39:29;0.73;;;0.73;;
3453;SDS011;1741;51.294;8.608;2024-02-04T13:41:56;0.70;;;0.70;;
3453;SDS011;1741;51.294;8.608;2024-02-04T13:44:24;0.97;;;0.80;;
3453;SDS011;1741;51.294;8.608;2024-02-04T13:46:54;0.83;;;0.70;;
3453;SDS011;1741;51.294;8.608;2024-02-04T13:49:21;0.60;;;0.60;;
3453;SDS011;1741;51.294;8.608;2024-02-04T13:51:48;0.70;;;0.70;;
3453;SDS011;1741;51.294;8.608;2024-02-04T13:54:16;0.80;;;0.80;;
3453;SDS011;1741;51.294;8.608;2024-02-04T13:56:47;0.60;;;0.60;;
3453;SDS011;1741;51.294;8.608;2024-02-04T13:59:14;0.70;;;0.70;;
3453;SDS011;1741;51.294;8.608;2024-02-04T14:01:42;0.53;;;0.53;;
3453;SDS011;1741;51.294;8.608;2024-02-04T14:04:10;0.50;;;0.50;;
3453;SDS011;1741;51.294;8.608;2024-02-04T14:06:37;0.60;;;0.60;;
3453;SDS011;1741;51.294;8.608;2024-02-04T14:09:04;1.50;;;1.40;;
3453;SDS011;1741;51.294;8.608;2024-02-04T14:11:32;0.57;;;0.57;;
3453;SDS011;1741;51.294;8.608;2024-02-04T14:13:59;0.73;;;0.60;;
3453;SDS011;1741;51.294;8.608;2024-02-04T14:16:27;0.50;;;0.50;;
3453;SDS011;1741;51.294;8.608;2024-02-04T14:18:54;0.50;;;0.50;;
3453;SDS011;1741;51.294;8.608;2024-02-04T14:21:26;0.87;;;0.80;;
3453;SDS011;1741;51.294;8.608;2024-02-04T14:23:55;0.60;;;0.60;;
3453;SDS011;1741;51.294;8.608;2024-02-04T14:26:23;0.50;;;0.50;;
3453;SDS011;1741;51.294;8.608;2024-02-04T14:28:49;0.50;;;0.50;;
3453;SDS011;1741;51.294;8.608;2024-02-04T14:31:17;2.80;;;2.50;;
3453;SDS011;1741;51.294;8.608;2024-02-04T14:33:46;0.50;;;0.50;;
3453;SDS011;1741;51.294;8.608;2024-02-04T14:36:14;0.40;;;0.40;;
3453;SDS011;1741;51.294;8.608;2024-02-04T14:38:41;0.47;;;0.47;;
3453;SDS011;1741;51.294;8.608;2024-02-04T14:41:08;0.50;;;0.50;;
3453;SDS011;1741;51.294;8.608;2024-02-04T14:43:36;0.50;;;0.50;;
3453;SDS011;1741;51.294;8.608;2024-02-04T14:46:03;0.57;;;0.57;;
3453;SDS011;1741;51.294;8.608;2024-02-04T14:48:35;0.40;;;0.40;;
3453;SDS011;1741;51.294;8.608;2024-02-04T14:51:09;0.40;;;0.40;;
3453;SDS011;1741;51.294;8.608;2024-02-04T14:53:36;0.50;;;0.50;;
3453;SDS011;1741;51.294;8.608;2024-02-04T14:56:03;0.50;;;0.50;;
3453;SDS011;1741;51.294;8.608;2024-02-04T14:58:30;0.50;;;0.50;;
3453;SDS011;1741;51.294;8.608;2024-02-04T15:01:00;0.40;;;0.40;;
3453;SDS011;1741;51.294;8.608;2024-02-04T15:03:27;0.40;;;0.40;;
3453;SDS011;1741;51.294;8.608;2024-02-04T15:05:55;0.40;;;0.40;;
3453;SDS011;1741;51.294;8.608;2024-02-04T15:08:22;0.50;;;0.50;;
3453;SDS011;1741;51.294;8.608;2024-02-04T15:10:49;0.50;;;0.50;;
3453;SDS011;1741;51.294;8.608;2024-02-04T15:13:16;0.50;;;0.50;;
3453;SDS011;1741;51.294;8.608;2024-02-04T15:15:44;2.53;;;0.60;;
3453;SDS011;1741;51.294;8.608;2024-02-04T15:18:12;0.50;;;0.50;;
3453;SDS011;1741;51.294;8.608;2024-02-04T15:20:40;0.70;;;0.70;;
3453;SDS011;1741;51.294;8.608;2024-02-04T15:23:08;0.50;;;0.50;;
3453;SDS011;1741;51.294;8.608;2024-02-04T15:25:35;0.60;;;0.60;;
3453;SDS011;1741;51.294;8.608;2024-02-04T15:28:03;2.33;;;0.70;;
3453;SDS011;1741;51.294;8.608;2024-02-04T15:30:36;1.43;;;0.67;;
3453;SDS011;1741;51.294;8.608;2024-02-04T15:33:04;0.90;;;0.90;;
3453;SDS011;1741;51.294;8.608;2024-02-04T15:35:31;0.50;;;0.50;;
3453;SDS011;1741;51.294;8.608;2024-02-04T15:38:00;0.60;;;0.60;;